Time;durP1;ratioP1;P1;durP2;ratioP2;P2;SDS_P1;SDS_P2;PMS_P1;PMS_P2;Temp;Humidity;BMP_temperature;BMP_pressure;BME280_temperature;BME280_humidity;BME280_pressure;Samples;Min_cycle;Max_cycle;Signal;HPM_P1;HPM_P2
2023/06/29 00:00:20;;;;;;;4.18;1.63;;;;;;;;;;5042766;28;20082;-63
2023/06/29 00:02:45;;;;;;;6.55;2.13;;;;;;;;;;5045552;28;20449;-62
2023/06/29 00:05:11;;;;;;;8.60;2.10;;;;;;;;;;5043067;28;20021;-64
2023/06/29 00:07:36;;;;;;;9.00;1.90;;;;;;;;;;5050448;28;20482;-65
2023/06/29 00:10:01;;;;;;;5.33;1.67;;;;;;;;;;5050596;28;20488;-64
2023/06/29 00:12:27;;;;;;;7.50;2.00;;;;;;;;;;5049828;28;20029;-64
2023/06/29 00:14:52;;;;;;;5.50;1.63;;;;;;;;;;5042989;28;20031;-63
2023/06/29 00:17:17;;;;;;;5.80;2.13;;;;;;;;;;5050678;28;20028;-66
2023/06/29 00:19:42;;;;;;;5.30;1.80;;;;;;;;;;5049700;28;20029;-62
2023/06/29 00:22:09;;;;;;;5.78;1.95;;;;;;;;;;5042477;28;20021;-64
2023/06/29 00:24:42;;;;;;;5.13;2.15;;;;;;;;;;5047839;28;20476;-63
2023/06/29 00:27:08;;;;;;;6.18;1.92;;;;;;;;;;5048032;28;20048;-64
2023/06/29 00:29:33;;;;;;;7.00;2.60;;;;;;;;;;5048473;28;20400;-64
2023/06/29 00:31:58;;;;;;;5.10;2.00;;;;;;;;;;5047192;28;20020;-63
2023/06/29 00:34:23;;;;;;;5.32;1.92;;;;;;;;;;5045357;28;20118;-63
2023/06/29 00:36:48;;;;;;;6.57;2.50;;;;;;;;;;5041998;28;20021;-63
2023/06/29 00:39:14;;;;;;;4.95;2.08;;;;;;;;;;5050312;28;20029;-63
2023/06/29 00:41:39;;;;;;;5.28;2.15;;;;;;;;;;5045417;28;20198;-62
2023/06/29 00:44:04;;;;;;;5.10;2.17;;;;;;;;;;5044649;28;20032;-64
2023/06/29 00:46:29;;;;;;;6.30;2.45;;;;;;;;;;5045366;28;20013;-63
2023/06/29 00:48:54;;;;;;;5.57;2.30;;;;;;;;;;5052195;28;20017;-62
2023/06/29 00:51:20;;;;;;;4.97;2.00;;;;;;;;;;5042473;28;20017;-65
2023/06/29 00:53:45;;;;;;;6.13;2.30;;;;;;;;;;5043422;28;20447;-63
2023/06/29 00:56:10;;;;;;;5.23;1.90;;;;;;;;;;5046344;28;20113;-63
2023/06/29 00:58:35;;;;;;;6.07;2.17;;;;;;;;;;5044081;28;20108;-63
2023/06/29 01:01:03;;;;;;;5.82;2.00;;;;;;;;;;5044768;28;20037;-60
2023/06/29 01:03:30;;;;;;;6.03;2.33;;;;;;;;;;5064324;28;20027;-64
2023/06/29 01:05:58;;;;;;;6.78;2.35;;;;;;;;;;5067573;28;20021;-65
2023/06/29 01:08:30;;;;;;;4.72;2.10;;;;;;;;;;5068844;28;20033;-64
2023/06/29 01:10:55;;;;;;;6.20;2.33;;;;;;;;;;5042158;28;20028;-62
2023/06/29 01:13:21;;;;;;;6.32;2.30;;;;;;;;;;5052179;28;20469;-62
2023/06/29 01:15:46;;;;;;;5.70;2.00;;;;;;;;;;5046947;28;20021;-63
2023/06/29 01:18:12;;;;;;;5.30;2.05;;;;;;;;;;5043152;28;20117;-62
2023/06/29 01:20:38;;;;;;;4.72;2.03;;;;;;;;;;5041164;28;20033;-63
2023/06/29 01:23:06;;;;;;;5.10;2.20;;;;;;;;;;5040152;28;20476;-63
2023/06/29 01:25:32;;;;;;;7.70;2.28;;;;;;;;;;5045708;28;20021;-64
2023/06/29 01:27:58;;;;;;;5.75;2.17;;;;;;;;;;5047026;28;20021;-64
2023/06/29 01:30:23;;;;;;;7.27;2.10;;;;;;;;;;5045168;28;20028;-64
2023/06/29 01:32:48;;;;;;;6.70;2.20;;;;;;;;;;5043595;28;20599;-64
2023/06/29 01:35:13;;;;;;;4.97;2.03;;;;;;;;;;5037261;28;20496;-63
2023/06/29 01:37:48;;;;;;;6.07;2.00;;;;;;;;;;5042432;28;20017;-64
2023/06/29 01:40:17;;;;;;;4.65;2.20;;;;;;;;;;5044433;28;20029;-62
2023/06/29 01:42:42;;;;;;;5.68;2.10;;;;;;;;;;5042102;28;20527;-64
2023/06/29 01:45:08;;;;;;;5.90;1.92;;;;;;;;;;5046061;28;20151;-62
2023/06/29 01:47:34;;;;;;;5.18;2.08;;;;;;;;;;5037224;28;20018;-65
2023/06/29 01:49:59;;;;;;;5.50;2.13;;;;;;;;;;5036581;28;20053;-63
2023/06/29 01:52:25;;;;;;;6.28;1.63;;;;;;;;;;5038876;28;20037;-63
2023/06/29 01:54:50;;;;;;;5.10;2.00;;;;;;;;;;5042168;28;20017;-64
2023/06/29 01:57:16;;;;;;;6.17;1.80;;;;;;;;;;5040942;28;20492;-62
2023/06/29 01:59:41;;;;;;;4.70;2.15;;;;;;;;;;5038609;28;20555;-64
2023/06/29 02:02:07;;;;;;;5.80;2.10;;;;;;;;;;5039534;28;20115;-62
2023/06/29 02:04:32;;;;;;;5.20;2.28;;;;;;;;;;5035145;28;20477;-64
2023/06/29 02:06:57;;;;;;;5.18;1.90;;;;;;;;;;5043892;28;20036;-64
2023/06/29 02:09:22;;;;;;;6.00;2.10;;;;;;;;;;5034521;28;20044;-64
2023/06/29 02:11:48;;;;;;;6.10;2.37;;;;;;;;;;5047648;28;20804;-61
2023/06/29 02:14:13;;;;;;;5.45;1.80;;;;;;;;;;5051472;28;20495;-63
2023/06/29 02:16:38;;;;;;;7.55;2.42;;;;;;;;;;5049488;28;20924;-64
2023/06/29 02:19:03;;;;;;;5.50;1.90;;;;;;;;;;5050353;28;20032;-64
2023/06/29 02:21:28;;;;;;;6.00;2.07;;;;;;;;;;5050930;28;20032;-65
2023/06/29 02:23:53;;;;;;;6.13;2.03;;;;;;;;;;5049984;28;20044;-64
2023/06/29 02:26:19;;;;;;;5.13;1.80;;;;;;;;;;5048055;28;20023;-65
2023/06/29 02:28:44;;;;;;;7.97;2.20;;;;;;;;;;5048354;28;20053;-64
2023/06/29 02:31:09;;;;;;;5.72;2.20;;;;;;;;;;5044690;28;20032;-65
2023/06/29 02:33:34;;;;;;;7.53;2.03;;;;;;;;;;5048550;28;20013;-61
2023/06/29 02:35:59;;;;;;;6.10;2.10;;;;;;;;;;5047102;28;20079;-64
2023/06/29 02:38:24;;;;;;;5.53;2.25;;;;;;;;;;5050987;28;20032;-64
2023/06/29 02:40:50;;;;;;;5.47;2.10;;;;;;;;;;5052462;28;20029;-65
2023/06/29 02:43:15;;;;;;;3.72;1.80;;;;;;;;;;5050377;28;20038;-63
2023/06/29 02:45:41;;;;;;;6.03;2.30;;;;;;;;;;5050490;28;20110;-63
2023/06/29 02:48:06;;;;;;;5.85;2.20;;;;;;;;;;5045934;28;20040;-62
2023/06/29 02:50:31;;;;;;;4.38;1.90;;;;;;;;;;5052605;28;20047;-62
2023/06/29 02:52:56;;;;;;;7.27;2.23;;;;;;;;;;5047498;28;20029;-64
2023/06/29 02:55:22;;;;;;;5.97;2.10;;;;;;;;;;5046179;28;20082;-63
2023/06/29 02:57:47;;;;;;;5.35;2.35;;;;;;;;;;5052016;28;20090;-63
2023/06/29 03:00:12;;;;;;;4.88;2.45;;;;;;;;;;5052244;28;20040;-63
2023/06/29 03:02:37;;;;;;;6.32;2.35;;;;;;;;;;5046232;28;20075;-64
2023/06/29 03:05:03;;;;;;;5.18;2.22;;;;;;;;;;5044308;28;20108;-62
2023/06/29 03:07:28;;;;;;;5.03;1.93;;;;;;;;;;5053146;28;20074;-62
2023/06/29 03:09:53;;;;;;;5.50;2.30;;;;;;;;;;5044115;28;20553;-62
2023/06/29 03:12:20;;;;;;;6.20;2.55;;;;;;;;;;5049759;28;20387;-63
2023/06/29 03:14:47;;;;;;;5.07;2.22;;;;;;;;;;5040607;28;20512;-63
2023/06/29 03:17:14;;;;;;;5.28;2.10;;;;;;;;;;5034399;28;20473;-63
2023/06/29 03:19:39;;;;;;;4.93;2.13;;;;;;;;;;5039673;28;20096;-62
2023/06/29 03:22:04;;;;;;;5.53;2.20;;;;;;;;;;5050345;28;20061;-64
2023/06/29 03:24:29;;;;;;;4.63;1.90;;;;;;;;;;5033684;28;20029;-62
2023/06/29 03:26:54;;;;;;;4.13;1.90;;;;;;;;;;5048736;28;20464;-63
2023/06/29 03:29:19;;;;;;;6.30;2.30;;;;;;;;;;5046552;28;20045;-62
2023/06/29 03:31:44;;;;;;;4.65;1.90;;;;;;;;;;5042647;28;20022;-63
2023/06/29 03:34:10;;;;;;;5.65;2.17;;;;;;;;;;5049517;28;20096;-63
2023/06/29 03:36:35;;;;;;;4.88;2.10;;;;;;;;;;5045108;28;20028;-62
2023/06/29 03:39:00;;;;;;;6.85;1.95;;;;;;;;;;5046196;28;20653;-62
2023/06/29 03:41:25;;;;;;;5.53;2.25;;;;;;;;;;5045946;28;20052;-61
2023/06/29 03:43:50;;;;;;;5.35;1.90;;;;;;;;;;5042105;28;20022;-62
2023/06/29 03:46:15;;;;;;;6.40;2.13;;;;;;;;;;5051356;28;20393;-62
2023/06/29 03:48:40;;;;;;;4.40;1.88;;;;;;;;;;5052147;28;20013;-63
2023/06/29 03:51:06;;;;;;;5.00;2.10;;;;;;;;;;5051253;28;20025;-63
2023/06/29 03:53:31;;;;;;;5.27;2.13;;;;;;;;;;5047141;28;20098;-64
2023/06/29 03:55:56;;;;;;;5.90;2.00;;;;;;;;;;5061796;28;20518;-64
2023/06/29 03:58:21;;;;;;;5.85;2.38;;;;;;;;;;5056395;28;20568;-62
2023/06/29 04:00:47;;;;;;;6.57;1.98;;;;;;;;;;5056217;28;20088;-63
2023/06/29 04:03:13;;;;;;;5.55;1.98;;;;;;;;;;5064124;28;20020;-62
2023/06/29 04:05:38;;;;;;;8.33;2.20;;;;;;;;;;5061218;28;20017;-61
2023/06/29 04:08:04;;;;;;;5.80;1.75;;;;;;;;;;5069811;28;20051;-64
2023/06/29 04:10:30;;;;;;;8.02;2.25;;;;;;;;;;5055042;28;20021;-61
2023/06/29 04:12:55;;;;;;;6.63;1.85;;;;;;;;;;5055358;28;20070;-62
2023/06/29 04:15:20;;;;;;;6.07;2.00;;;;;;;;;;5053892;28;20496;-63
2023/06/29 04:17:45;;;;;;;5.18;2.00;;;;;;;;;;5056550;28;20091;-63
2023/06/29 04:20:11;;;;;;;6.33;1.87;;;;;;;;;;5041065;28;20037;-62
2023/06/29 04:22:36;;;;;;;4.63;1.90;;;;;;;;;;5049542;28;20078;-62
2023/06/29 04:25:01;;;;;;;5.83;1.83;;;;;;;;;;5056981;28;20028;-63
2023/06/29 04:27:26;;;;;;;5.53;1.80;;;;;;;;;;5040297;28;20437;-62
2023/06/29 04:29:51;;;;;;;7.10;2.03;;;;;;;;;;5045501;28;20033;-65
2023/06/29 04:32:17;;;;;;;5.35;1.83;;;;;;;;;;5035547;28;20487;-62
2023/06/29 04:34:42;;;;;;;7.72;2.00;;;;;;;;;;5029773;28;20032;-61
2023/06/29 04:37:07;;;;;;;4.63;1.60;;;;;;;;;;5037611;28;20021;-61
2023/06/29 04:39:32;;;;;;;5.50;1.80;;;;;;;;;;5032633;28;20203;-62
2023/06/29 04:42:05;;;;;;;5.93;1.87;;;;;;;;;;5041672;28;20063;-63
2023/06/29 04:44:31;;;;;;;5.50;1.75;;;;;;;;;;5042403;28;20112;-63
2023/06/29 04:46:59;;;;;;;5.35;2.03;;;;;;;;;;5060868;28;20095;-64
2023/06/29 04:49:27;;;;;;;5.47;1.70;;;;;;;;;;5035967;28;20151;-62
2023/06/29 04:51:52;;;;;;;4.68;1.63;;;;;;;;;;5046040;28;20052;-63
2023/06/29 04:54:17;;;;;;;5.57;1.80;;;;;;;;;;5044486;28;20449;-64
2023/06/29 04:56:43;;;;;;;4.18;1.30;;;;;;;;;;5033063;28;20112;-64
2023/06/29 04:59:08;;;;;;;4.63;1.48;;;;;;;;;;5026272;28;20045;-63
2023/06/29 05:01:33;;;;;;;5.57;1.87;;;;;;;;;;5041214;28;20492;-61
2023/06/29 05:03:58;;;;;;;7.35;2.13;;;;;;;;;;5039975;28;20031;-61
2023/06/29 05:06:23;;;;;;;5.25;1.60;;;;;;;;;;5055146;28;20024;-62
2023/06/29 05:08:48;;;;;;;4.93;1.80;;;;;;;;;;5035899;28;20714;-62
2023/06/29 05:11:13;;;;;;;4.67;1.63;;;;;;;;;;5030852;28;20032;-62
2023/06/29 05:13:39;;;;;;;5.57;1.83;;;;;;;;;;5036583;28;20017;-63
2023/06/29 05:16:04;;;;;;;5.13;1.63;;;;;;;;;;5037184;28;20104;-61
2023/06/29 05:18:29;;;;;;;4.30;1.70;;;;;;;;;;5030171;28;20029;-63
2023/06/29 05:20:54;;;;;;;5.63;1.63;;;;;;;;;;5038630;28;20025;-62
2023/06/29 05:23:20;;;;;;;6.38;1.90;;;;;;;;;;5042359;28;20093;-62
2023/06/29 05:25:45;;;;;;;6.33;1.70;;;;;;;;;;5029862;28;20432;-61
2023/06/29 05:28:10;;;;;;;5.53;1.83;;;;;;;;;;5039589;28;20556;-63
2023/06/29 05:30:35;;;;;;;5.50;2.20;;;;;;;;;;5050550;28;20448;-62
2023/06/29 05:33:00;;;;;;;4.40;1.70;;;;;;;;;;5049670;28;20544;-63
2023/06/29 05:35:26;;;;;;;4.00;1.50;;;;;;;;;;5050424;28;20100;-62
2023/06/29 05:37:51;;;;;;;5.45;1.70;;;;;;;;;;5050603;28;20942;-63
2023/06/29 05:40:16;;;;;;;6.03;1.60;;;;;;;;;;5050663;28;20027;-63
2023/06/29 05:42:42;;;;;;;7.45;1.98;;;;;;;;;;5048196;28;20086;-64
2023/06/29 05:45:07;;;;;;;5.00;1.70;;;;;;;;;;5040633;28;20052;-62
2023/06/29 05:47:32;;;;;;;6.57;1.70;;;;;;;;;;5030357;28;20052;-63
2023/06/29 05:49:57;;;;;;;6.68;1.85;;;;;;;;;;5029946;28;20563;-63
2023/06/29 05:52:22;;;;;;;7.87;1.80;;;;;;;;;;5044214;28;20037;-63
2023/06/29 05:54:48;;;;;;;4.53;1.53;;;;;;;;;;5029428;28;20037;-62
2023/06/29 05:57:13;;;;;;;4.53;1.40;;;;;;;;;;5029507;28;20033;-61
2023/06/29 05:59:38;;;;;;;5.22;1.52;;;;;;;;;;5036731;28;20029;-62
2023/06/29 06:02:03;;;;;;;5.60;2.20;;;;;;;;;;5038988;28;20435;-60
2023/06/29 06:04:28;;;;;;;4.47;1.40;;;;;;;;;;5044548;28;20021;-63
2023/06/29 06:06:53;;;;;;;5.20;1.50;;;;;;;;;;5045983;28;20493;-63
2023/06/29 06:09:18;;;;;;;5.95;1.63;;;;;;;;;;5045215;28;20515;-62
2023/06/29 06:11:44;;;;;;;6.10;1.45;;;;;;;;;;5041110;28;20024;-64
2023/06/29 06:14:09;;;;;;;5.03;1.37;;;;;;;;;;5029892;28;20018;-63
2023/06/29 06:16:34;;;;;;;8.32;2.05;;;;;;;;;;5030181;28;20378;-62
2023/06/29 06:18:59;;;;;;;4.40;1.63;;;;;;;;;;5042014;28;20041;-63
2023/06/29 06:21:24;;;;;;;4.82;1.50;;;;;;;;;;5046015;28;20053;-63
2023/06/29 06:23:50;;;;;;;6.47;1.80;;;;;;;;;;5030014;28;20354;-64
2023/06/29 06:26:16;;;;;;;6.55;1.70;;;;;;;;;;5041188;28;20028;-63
2023/06/29 06:28:41;;;;;;;5.13;1.60;;;;;;;;;;5050177;28;20051;-63
2023/06/29 06:31:06;;;;;;;4.88;1.70;;;;;;;;;;5032693;28;20385;-65
2023/06/29 06:33:32;;;;;;;4.90;1.60;;;;;;;;;;5043675;28;20021;-64
2023/06/29 06:35:58;;;;;;;6.03;1.80;;;;;;;;;;5048217;28;20020;-63
2023/06/29 06:38:24;;;;;;;6.03;1.77;;;;;;;;;;5049482;28;20044;-62
2023/06/29 06:40:51;;;;;;;4.95;1.42;;;;;;;;;;5044778;28;20033;-63
2023/06/29 06:43:16;;;;;;;4.82;1.50;;;;;;;;;;5049378;28;20093;-63
2023/06/29 06:45:41;;;;;;;5.23;1.60;;;;;;;;;;5050004;28;20171;-65
2023/06/29 06:48:06;;;;;;;4.95;1.30;;;;;;;;;;5049786;28;20024;-63
2023/06/29 06:50:31;;;;;;;6.05;1.50;;;;;;;;;;5044566;28;20017;-62
2023/06/29 06:52:56;;;;;;;8.00;1.70;;;;;;;;;;5049294;28;20102;-63
2023/06/29 06:55:22;;;;;;;4.70;1.65;;;;;;;;;;5029858;28;20084;-65
2023/06/29 06:57:47;;;;;;;5.27;1.70;;;;;;;;;;5034318;28;20048;-63
2023/06/29 07:00:13;;;;;;;6.53;1.60;;;;;;;;;;5032993;28;20401;-63
2023/06/29 07:02:38;;;;;;;;;;;;;;;;;;5053560;28;20086;-65
2023/06/29 07:05:05;;;;;;;4.18;1.50;;;;;;;;;;5051461;28;19908;-63
2023/06/29 07:07:30;;;;;;;3.85;1.40;;;;;;;;;;5053666;28;20017;-63
2023/06/29 07:09:55;;;;;;;4.82;1.60;;;;;;;;;;5053373;28;20477;-62
2023/06/29 07:12:20;;;;;;;6.57;1.50;;;;;;;;;;5052907;28;20028;-65
2023/06/29 07:14:46;;;;;;;6.57;1.60;;;;;;;;;;5051408;28;20092;-63
2023/06/29 07:17:11;;;;;;;6.63;1.60;;;;;;;;;;5052778;28;20016;-61
2023/06/29 07:19:36;;;;;;;7.35;1.80;;;;;;;;;;5053628;28;20047;-64
2023/06/29 07:22:01;;;;;;;3.75;1.52;;;;;;;;;;5053391;28;20083;-63
2023/06/29 07:24:26;;;;;;;6.50;1.53;;;;;;;;;;5054363;28;20009;-64
2023/06/29 07:26:51;;;;;;;5.63;1.50;;;;;;;;;;5048052;28;20047;-61
2023/06/29 07:29:16;;;;;;;7.25;1.70;;;;;;;;;;5045336;28;20068;-63
2023/06/29 07:31:42;;;;;;;7.00;1.85;;;;;;;;;;5054181;28;20036;-62
2023/06/29 07:34:07;;;;;;;4.88;1.50;;;;;;;;;;5053462;28;20017;-63
2023/06/29 07:36:34;;;;;;;3.67;1.23;;;;;;;;;;5057247;28;20050;-63
2023/06/29 07:38:59;;;;;;;4.57;1.40;;;;;;;;;;5057710;28;20040;-62
2023/06/29 07:41:24;;;;;;;3.70;1.40;;;;;;;;;;5054347;28;20396;-64
2023/06/29 07:43:54;;;;;;;6.33;1.40;;;;;;;;;;5050830;28;20094;-63
2023/06/29 07:46:20;;;;;;;5.68;1.25;;;;;;;;;;5052383;28;20119;-65
2023/06/29 07:48:46;;;;;;;4.60;1.40;;;;;;;;;;5052866;28;20021;-63
2023/06/29 07:51:11;;;;;;;;;;;;;;;;;;5043018;28;20566;-64
2023/06/29 07:53:36;;;;;;;4.82;1.55;;;;;;;;;;5050956;28;20387;-63
2023/06/29 07:56:01;;;;;;;4.55;1.30;;;;;;;;;;5052318;28;20032;-64
2023/06/29 07:58:27;;;;;;;3.73;1.20;;;;;;;;;;5052595;28;20053;-64
2023/06/29 08:00:53;;;;;;;4.35;1.20;;;;;;;;;;5051924;28;20549;-63
2023/06/29 08:03:18;;;;;;;4.43;1.30;;;;;;;;;;5051853;28;20025;-63
2023/06/29 08:05:43;;;;;;;4.03;1.20;;;;;;;;;;5050707;28;20390;-63
2023/06/29 08:08:09;;;;;;;4.40;1.30;;;;;;;;;;5052160;28;20079;-65
2023/06/29 08:10:34;;;;;;;4.00;1.27;;;;;;;;;;5050848;28;20017;-61
2023/06/29 08:12:59;;;;;;;4.13;1.20;;;;;;;;;;5051656;28;20384;-63
2023/06/29 08:15:24;;;;;;;5.47;1.60;;;;;;;;;;5052023;28;20389;-66
2023/06/29 08:17:49;;;;;;;5.07;1.10;;;;;;;;;;5047916;28;20132;-64
2023/06/29 08:20:14;;;;;;;3.63;1.10;;;;;;;;;;5051977;28;20044;-63
2023/06/29 08:22:40;;;;;;;4.28;1.20;;;;;;;;;;5051465;28;20469;-64
2023/06/29 08:25:05;;;;;;;3.45;1.20;;;;;;;;;;5052476;28;20016;-64
2023/06/29 08:27:30;;;;;;;4.57;1.13;;;;;;;;;;5052873;28;20051;-63
2023/06/29 08:29:55;;;;;;;6.57;1.20;;;;;;;;;;5052174;28;20017;-63
2023/06/29 08:32:21;;;;;;;5.45;1.10;;;;;;;;;;5047163;28;20488;-63
2023/06/29 08:34:46;;;;;;;3.55;1.38;;;;;;;;;;5051933;28;20056;-63
2023/06/29 08:37:11;;;;;;;4.25;1.10;;;;;;;;;;5051603;28;20040;-64
2023/06/29 08:39:36;;;;;;;5.13;1.23;;;;;;;;;;5051581;28;20456;-62
2023/06/29 08:42:02;;;;;;;5.32;1.35;;;;;;;;;;5047119;28;20056;-63
2023/06/29 08:44:27;;;;;;;3.90;1.20;;;;;;;;;;5051758;28;20017;-63
2023/06/29 08:46:52;;;;;;;4.50;1.30;;;;;;;;;;5051242;28;20029;-63
2023/06/29 08:49:20;;;;;;;3.73;1.10;;;;;;;;;;5051696;28;20381;-64
2023/06/29 08:51:46;;;;;;;4.55;1.10;;;;;;;;;;5051690;28;20476;-63
2023/06/29 08:54:12;;;;;;;4.28;1.23;;;;;;;;;;5042522;28;20037;-63
2023/06/29 08:56:37;;;;;;;4.25;1.20;;;;;;;;;;5051053;28;20554;-62
2023/06/29 08:59:02;;;;;;;3.00;1.10;;;;;;;;;;5051310;28;20112;-63
2023/06/29 09:01:28;;;;;;;4.57;1.30;;;;;;;;;;5051277;28;20393;-63
2023/06/29 09:03:54;;;;;;;4.32;1.10;;;;;;;;;;5050534;28;20760;-63
2023/06/29 09:06:19;;;;;;;3.50;1.00;;;;;;;;;;5051033;28;20025;-65
2023/06/29 09:08:44;;;;;;;3.45;1.15;;;;;;;;;;5043133;28;20044;-63
2023/06/29 09:11:09;;;;;;;4.47;1.30;;;;;;;;;;5049627;28;20021;-63
2023/06/29 09:13:36;;;;;;;3.80;1.17;;;;;;;;;;5051037;28;20067;-62
2023/06/29 09:16:01;;;;;;;4.28;1.10;;;;;;;;;;5051691;28;20028;-62
2023/06/29 09:18:28;;;;;;;3.42;1.23;;;;;;;;;;5051483;28;20024;-63
2023/06/29 09:20:54;;;;;;;;;;;;;;;;;;5052270;28;20575;-62
2023/06/29 09:23:19;;;;;;;3.78;1.13;;;;;;;;;;5050683;28;19917;-64
2023/06/29 09:25:45;;;;;;;5.28;1.40;;;;;;;;;;5042824;28;20445;-65
2023/06/29 09:28:12;;;;;;;5.05;1.40;;;;;;;;;;5051288;28;20021;-65
2023/06/29 09:30:40;;;;;;;3.33;1.17;;;;;;;;;;5050656;28;20021;-63
2023/06/29 09:33:09;;;;;;;6.78;1.38;;;;;;;;;;5050615;28;20021;-63
2023/06/29 09:35:36;;;;;;;5.35;1.30;;;;;;;;;;5050749;28;20024;-63
2023/06/29 09:38:02;;;;;;;3.78;1.27;;;;;;;;;;5035255;28;20017;-62
2023/06/29 09:40:28;;;;;;;3.63;1.00;;;;;;;;;;5051076;28;20109;-63
2023/06/29 09:42:53;;;;;;;4.95;1.52;;;;;;;;;;5039865;28;20432;-63
2023/06/29 09:45:18;;;;;;;4.77;1.50;;;;;;;;;;5043994;28;20013;-64
2023/06/29 09:47:53;;;;;;;3.42;1.38;;;;;;;;;;5037113;28;20052;-62
2023/06/29 09:50:19;;;;;;;4.03;1.20;;;;;;;;;;5049426;28;20029;-62
2023/06/29 09:52:45;;;;;;;2.95;1.15;;;;;;;;;;5049754;28;20019;-64
2023/06/29 09:55:10;;;;;;;3.83;1.13;;;;;;;;;;5050372;28;20021;-63
2023/06/29 09:57:36;;;;;;;3.67;1.30;;;;;;;;;;5050060;28;20523;-62
2023/06/29 10:00:04;;;;;;;4.80;1.25;;;;;;;;;;5050717;28;20090;-62
2023/06/29 10:02:30;;;;;;;4.43;1.33;;;;;;;;;;5046566;28;20036;-64
2023/06/29 10:04:55;;;;;;;4.63;1.42;;;;;;;;;;5050131;28;20013;-63
2023/06/29 10:07:21;;;;;;;4.70;1.27;;;;;;;;;;5051278;28;20071;-63
2023/06/29 10:09:48;;;;;;;4.50;1.30;;;;;;;;;;5050202;28;20088;-64
2023/06/29 10:12:15;;;;;;;3.80;1.20;;;;;;;;;;5049547;28;20040;-63
2023/06/29 10:14:41;;;;;;;5.20;1.40;;;;;;;;;;5050237;28;20108;-63
2023/06/29 10:17:25;;;;;;;4.05;1.13;;;;;;;;;;5050332;28;20105;-64
2023/06/29 10:19:51;;;;;;;5.60;1.52;;;;;;;;;;5044236;28;20526;-62
2023/06/29 10:22:17;;;;;;;5.15;1.50;;;;;;;;;;5048259;28;20139;-63
2023/06/29 10:24:47;;;;;;;3.47;1.10;;;;;;;;;;5031198;28;20109;-62
2023/06/29 10:27:13;;;;;;;5.20;1.50;;;;;;;;;;5045973;28;20025;-62
2023/06/29 10:29:44;;;;;;;3.75;1.10;;;;;;;;;;5049115;28;20553;-63
2023/06/29 10:32:27;;;;;;;4.60;1.25;;;;;;;;;;5042864;28;20515;-64
2023/06/29 10:34:59;;;;;;;4.55;1.60;;;;;;;;;;5052077;28;20058;-63
2023/06/29 10:37:34;;;;;;;4.65;1.33;;;;;;;;;;5054135;28;20029;-65
2023/06/29 10:39:59;;;;;;;5.05;1.33;;;;;;;;;;5054021;28;20108;-64
2023/06/29 10:42:24;;;;;;;3.30;1.30;;;;;;;;;;5053110;28;20112;-62
2023/06/29 10:44:50;;;;;;;3.65;1.40;;;;;;;;;;5052671;28;20561;-63
2023/06/29 10:47:28;;;;;;;4.23;1.40;;;;;;;;;;5052224;28;20037;-62
2023/06/29 10:50:08;;;;;;;4.00;1.20;;;;;;;;;;5053794;28;20032;-63
2023/06/29 10:52:33;;;;;;;4.53;1.30;;;;;;;;;;5058922;28;20041;-63
2023/06/29 10:55:17;;;;;;;3.42;1.27;;;;;;;;;;5053922;28;20021;-63
2023/06/29 10:57:46;;;;;;;6.32;1.60;;;;;;;;;;5053205;28;20420;-63
2023/06/29 11:00:12;;;;;;;4.72;1.48;;;;;;;;;;5053383;28;20111;-62
2023/06/29 11:02:38;;;;;;;3.80;1.48;;;;;;;;;;5041119;28;20100;-62
2023/06/29 11:05:03;;;;;;;;;;;;;;;;;;5054554;28;20017;-63
2023/06/29 11:07:28;;;;;;;5.22;1.30;;;;;;;;;;5053590;28;19912;-64
2023/06/29 11:09:53;;;;;;;;;;;;;;;;;;5053964;28;20388;-64
2023/06/29 11:12:19;;;;;;;6.60;1.30;;;;;;;;;;5052538;28;19905;-63
2023/06/29 11:14:44;;;;;;;;;;;;;;;;;;5053854;28;20444;-63
2023/06/29 11:17:09;;;;;;;4.57;1.50;;;;;;;;;;5051259;28;19912;-63
2023/06/29 11:19:34;;;;;;;;;;;;;;;;;;5044741;28;20032;-62
2023/06/29 11:22:00;;;;;;;3.85;1.10;;;;;;;;;;5052596;28;19913;-63
2023/06/29 11:24:25;;;;;;;;;;;;;;;;;;5053606;28;20058;-62
2023/06/29 11:26:50;;;;;;;3.95;1.30;;;;;;;;;;5049390;28;19905;-62
2023/06/29 11:29:15;;;;;;;3.87;1.40;;;;;;;;;;5051249;28;20071;-62
2023/06/29 11:31:40;;;;;;;;;;;;;;;;;;5053754;28;20399;-64
2023/06/29 11:34:05;;;;;;;4.00;1.48;;;;;;;;;;5052402;28;19905;-64
2023/06/29 11:36:31;;;;;;;;;;;;;;;;;;5053394;28;20076;-65
2023/06/29 11:39:07;;;;;;;5.43;1.70;;;;;;;;;;5052543;28;19908;-64
2023/06/29 11:41:32;;;;;;;4.28;1.38;;;;;;;;;;5049361;28;20037;-63
2023/06/29 11:44:00;;;;;;;;;;;;;;;;;;5051286;28;20015;-64
2023/06/29 11:46:25;;;;;;;3.42;1.25;;;;;;;;;;5044354;28;19909;-63
2023/06/29 11:48:51;;;;;;;;;;;;;;;;;;5053252;28;20392;-63
2023/06/29 11:51:16;;;;;;;3.75;1.35;;;;;;;;;;5052648;28;20360;-64
2023/06/29 11:53:42;;;;;;;3.87;1.27;;;;;;;;;;5052106;28;20032;-63
2023/06/29 11:56:07;;;;;;;;;;;;;;;;;;5052910;28;20486;-62
2023/06/29 11:58:33;;;;;;;4.80;1.30;;;;;;;;;;5043273;28;19908;-62
2023/06/29 12:00:58;;;;;;;;;;;;;;;;;;5052663;28;20502;-62
2023/06/29 12:03:23;;;;;;;6.57;1.73;;;;;;;;;;5051680;28;19914;-64
2023/06/29 12:05:48;;;;;;;;;;;;;;;;;;5053155;28;20017;-62
2023/06/29 12:08:14;;;;;;;4.40;1.30;;;;;;;;;;5051939;28;19909;-63
2023/06/29 12:10:39;;;;;;;;;;;;;;;;;;5052739;28;20020;-64
2023/06/29 12:13:05;;;;;;;3.70;1.40;;;;;;;;;;5049055;28;20002;-63
2023/06/29 12:15:31;;;;;;;;;;;;;;;;;;5046647;28;20078;-64
2023/06/29 12:18:15;;;;;;;5.38;1.70;;;;;;;;;;5051929;28;19912;-62
2023/06/29 12:20:43;;;;;;;3.65;1.25;;;;;;;;;;5051882;28;20576;-65
2023/06/29 12:23:10;;;;;;;4.65;1.40;;;;;;;;;;5051189;28;20512;-63
2023/06/29 12:25:42;;;;;;;4.25;1.52;;;;;;;;;;5045642;28;20431;-63
2023/06/29 12:28:07;;;;;;;4.55;1.10;;;;;;;;;;5042877;28;20081;-63
2023/06/29 12:30:32;;;;;;;;;;;;;;;;;;5057217;28;20058;-62
2023/06/29 12:32:59;;;;;;;4.32;1.50;;;;;;;;;;5050645;28;19944;-63
2023/06/29 12:35:25;;;;;;;4.85;1.67;;;;;;;;;;5045763;28;20126;-63
2023/06/29 12:37:50;;;;;;;;;;;;;;;;;;5045460;28;20025;-64
2023/06/29 12:40:15;;;;;;;3.75;1.30;;;;;;;;;;5050936;28;19908;-64
2023/06/29 12:42:40;;;;;;;4.25;1.40;;;;;;;;;;5053331;28;20025;-63
2023/06/29 12:45:05;;;;;;;;;;;;;;;;;;5052408;28;20384;-65
2023/06/29 12:47:31;;;;;;;3.88;1.20;;;;;;;;;;5049825;28;20414;-63
2023/06/29 12:49:56;;;;;;;;;;;;;;;;;;5047157;28;20025;-64
2023/06/29 12:52:21;;;;;;;4.22;1.20;;;;;;;;;;5050131;28;19935;-62
2023/06/29 12:54:46;;;;;;;;;;;;;;;;;;5045063;28;20480;-62
2023/06/29 12:57:14;;;;;;;3.63;1.30;;;;;;;;;;5045592;28;19943;-62
2023/06/29 12:59:40;;;;;;;3.00;1.38;;;;;;;;;;5048304;28;20017;-62
2023/06/29 13:02:05;;;;;;;;;;;;;;;;;;5050639;28;20384;-63
2023/06/29 13:04:35;;;;;;;4.70;1.50;;;;;;;;;;5051164;28;19958;-62
2023/06/29 13:07:00;;;;;;;3.50;1.30;;;;;;;;;;5051307;28;20025;-64
2023/06/29 13:09:25;;;;;;;;;;;;;;;;;;5051900;28;20188;-63
2023/06/29 13:11:50;;;;;;;3.95;1.35;;;;;;;;;;5052097;28;19940;-63
2023/06/29 13:14:15;;;;;;;;;;;;;;;;;;5052128;28;20458;-62
2023/06/29 13:16:41;;;;;;;5.32;1.38;;;;;;;;;;5051402;28;20368;-64
2023/06/29 13:19:06;;;;;;;;;;;;;;;;;;5031306;28;20079;-62
2023/06/29 13:21:31;;;;;;;4.20;1.25;;;;;;;;;;5043252;28;19921;-61
2023/06/29 13:23:56;;;;;;;;;;;;;;;;;;5049917;28;20020;-63
2023/06/29 13:26:21;;;;;;;4.38;1.40;;;;;;;;;;5050442;28;19920;-62
2023/06/29 13:28:46;;;;;;;3.28;1.23;;;;;;;;;;5050895;28;20021;-63
2023/06/29 13:31:11;;;;;;;;;;;;;;;;;;5045453;28;20481;-62
2023/06/29 13:33:36;;;;;;;5.72;1.45;;;;;;;;;;5042644;28;19962;-65
2023/06/29 13:36:02;;;;;;;4.43;1.30;;;;;;;;;;5040572;28;20035;-62
2023/06/29 13:38:27;;;;;;;;;;;;;;;;;;5038942;28;20025;-62
2023/06/29 13:40:52;;;;;;;3.05;1.20;;;;;;;;;;5042446;28;20391;-64
2023/06/29 13:43:18;;;;;;;;;;;;;;;;;;5048517;28;20500;-61
2023/06/29 13:45:43;;;;;;;3.70;1.27;;;;;;;;;;5039655;28;19991;-62
2023/06/29 13:48:08;;;;;;;;;;;;;;;;;;5050826;28;20575;-63
2023/06/29 13:50:33;;;;;;;3.42;1.20;;;;;;;;;;5041285;28;20003;-64
2023/06/29 13:52:58;;;;;;;;;;;;;;;;;;5038052;28;20100;-63
2023/06/29 13:55:23;;;;;;;4.22;1.23;;;;;;;;;;5044282;28;19917;-62
2023/06/29 13:57:48;;;;;;;;;;;;;;;;;;5049226;28;20227;-63
2023/06/29 14:00:13;;;;;;;4.50;1.33;;;;;;;;;;5037465;28;19912;-63
2023/06/29 14:02:39;;;;;;;;;;;;;;;;;;5034373;28;20025;-63
2023/06/29 14:05:04;;;;;;;3.50;1.30;;;;;;;;;;5032600;28;19999;-64
2023/06/29 14:07:29;;;;;;;;;;;;;;;;;;5036803;28;20020;-64
2023/06/29 14:09:54;;;;;;;3.83;1.15;;;;;;;;;;5043925;28;20387;-63
2023/06/29 14:12:19;;;;;;;;;;;;;;;;;;5037582;28;20029;-62
2023/06/29 14:14:45;;;;;;;3.90;1.30;;;;;;;;;;5039038;28;19916;-63
2023/06/29 14:17:10;;;;;;;;;;;;;;;;;;5031861;28;20548;-63
2023/06/29 14:19:35;;;;;;;4.13;1.42;;;;;;;;;;5032705;28;19916;-62
2023/06/29 14:22:00;;;;;;;;;;;;;;;;;;5032254;28;20045;-64
2023/06/29 14:24:26;;;;;;;4.82;1.55;;;;;;;;;;5041896;28;19909;-63
2023/06/29 14:26:53;;;;;;;;;;;;;;;;;;5033150;28;20033;-64
2023/06/29 14:29:18;;;;;;;4.53;1.20;;;;;;;;;;5044343;28;19913;-61
2023/06/29 14:31:44;;;;;;;;;;;;;;;;;;5031697;28;20739;-62
2023/06/29 14:34:09;;;;;;;4.00;1.40;;;;;;;;;;5033617;28;19909;-62
2023/06/29 14:36:34;;;;;;;;;;;;;;;;;;5034681;28;20025;-63
2023/06/29 14:38:59;;;;;;;4.38;1.67;;;;;;;;;;5052043;28;19959;-63
2023/06/29 14:41:24;;;;;;;;;;;;;;;;;;5055434;28;20408;-64
2023/06/29 14:43:50;;;;;;;3.80;1.33;;;;;;;;;;5053509;28;19905;-62
2023/06/29 14:46:15;;;;;;;;;;;;;;;;;;5054654;28;20488;-62